createdAt,value
2023-05-23T00:01:49.744Z,100317.72
2023-05-23T00:04:20.532Z,100322.06
2023-05-23T00:06:50.740Z,100317.72
2023-05-23T00:09:18.327Z,100317.78
2023-05-23T00:11:45.703Z,100310.28
2023-05-23T00:14:16.152Z,100319.72
2023-05-23T00:16:45.202Z,100310.25
2023-05-23T00:19:15.284Z,100310.28
2023-05-23T00:21:48.650Z,100305.28
2023-05-23T00:24:18.865Z,100304.44
2023-05-23T00:26:46.832Z,100307.06
2023-05-23T00:29:16.618Z,100306.22
2023-05-23T00:31:47.727Z,100305.56
2023-05-23T00:34:17.976Z,100310.09
2023-05-23T00:36:48.157Z,100313.97
2023-05-23T00:39:19.970Z,100312.63
2023-05-23T00:41:51.813Z,100301.00
2023-05-23T00:44:22.768Z,100296.97
2023-05-23T00:46:52.412Z,100311.09
2023-05-23T00:49:22.589Z,100313.03
2023-05-23T00:51:50.711Z,100309.63
2023-05-23T00:54:31.344Z,100307.19
2023-05-23T00:56:58.648Z,100305.50
2023-05-23T00:59:27.268Z,100314.09
2023-05-23T01:01:57.158Z,100311.47
2023-05-23T01:04:26.870Z,100308.78
2023-05-23T01:06:58.003Z,100300.94
2023-05-23T01:09:28.760Z,100305.31
2023-05-23T01:12:22.569Z,100307.00
2023-05-23T01:15:11.574Z,100300.97
2023-05-23T01:17:59.654Z,100292.28
2023-05-23T01:20:36.456Z,100301.72
2023-05-23T01:23:15.643Z,100308.66
2023-05-23T01:25:59.531Z,100306.81
2023-05-23T01:28:40.585Z,100306.91
2023-05-23T01:31:11.177Z,100302.72
2023-05-23T01:33:40.432Z,100298.47
2023-05-23T01:36:08.297Z,100305.31
2023-05-23T01:38:35.366Z,100301.88
2023-05-23T01:41:02.410Z,100303.66
2023-05-23T01:43:29.635Z,100299.38
2023-05-23T01:45:57.857Z,100295.13
2023-05-23T01:48:28.409Z,100296.94
2023-05-23T01:50:57.420Z,100296.84
2023-05-23T01:53:25.697Z,100295.13
2023-05-23T01:55:53.258Z,100293.50
2023-05-23T01:58:22.172Z,100287.41
2023-05-23T02:00:49.370Z,100287.56
2023-05-23T02:03:16.946Z,100283.34
2023-05-23T02:05:44.320Z,100276.41
2023-05-23T02:08:11.430Z,100282.47
2023-05-23T02:10:38.647Z,100280.88
2023-05-23T02:13:05.890Z,100270.63
2023-05-23T02:15:32.899Z,100274.00
2023-05-23T02:18:00.043Z,100272.31
2023-05-23T02:20:27.057Z,100274.91
2023-05-23T02:22:54.065Z,100272.31
2023-05-23T02:25:21.106Z,100271.47
2023-05-23T02:27:48.093Z,100268.91
2023-05-23T02:30:15.288Z,100264.63
2023-05-23T02:32:42.343Z,100253.41
2023-05-23T02:35:10.714Z,100257.88
2023-05-23T02:37:37.745Z,100244.91
2023-05-23T02:40:07.776Z,100261.28
2023-05-23T02:42:36.092Z,100259.59
2023-05-23T02:45:03.415Z,100260.44
2023-05-23T02:47:30.687Z,100254.38
2023-05-23T02:49:57.845Z,100251.88
2023-05-23T02:52:25.839Z,100257.94
2023-05-23T02:54:53.403Z,100251.03
2023-05-23T02:57:20.683Z,100251.94
2023-05-23T02:59:47.724Z,100240.72
2023-05-23T03:02:14.892Z,100246.75
2023-05-23T03:04:42.201Z,100240.63
2023-05-23T03:07:20.306Z,100244.13
2023-05-23T03:09:51.665Z,100231.25
2023-05-23T03:12:18.851Z,100235.59
2023-05-23T03:14:45.960Z,100233.00
2023-05-23T03:17:14.007Z,100225.25
2023-05-23T03:19:41.279Z,100233.81
2023-05-23T03:22:08.419Z,100237.13
2023-05-23T03:24:35.858Z,100235.34
2023-05-23T03:27:03.367Z,100231.84
2023-05-23T03:29:30.518Z,100225.75
2023-05-23T03:31:57.929Z,100236.88
2023-05-23T03:34:26.854Z,100221.25
2023-05-23T03:36:54.008Z,100233.22
2023-05-23T03:39:21.239Z,100234.84
2023-05-23T03:41:48.384Z,100223.50
2023-05-23T03:44:16.400Z,100212.31
2023-05-23T03:46:43.532Z,100225.97
2023-05-23T03:49:11.092Z,100230.25
2023-05-23T03:51:38.155Z,100230.16
2023-05-23T03:54:05.352Z,100220.56
2023-05-23T03:56:32.917Z,100215.25
2023-05-23T03:59:00.318Z,100216.63
2023-05-23T04:01:28.076Z,100225.16
2023-05-23T04:03:55.397Z,100219.78
2023-05-23T04:06:24.800Z,100224.78
2023-05-23T04:08:52.001Z,100224.63
2023-05-23T04:11:19.210Z,100223.69
2023-05-23T04:13:47.352Z,100225.28
2023-05-23T04:16:14.811Z,100220.81
2023-05-23T04:18:43.729Z,100226.75
2023-05-23T04:21:10.902Z,100225.88
2023-05-23T04:23:44.699Z,100226.66
2023-05-23T04:26:11.864Z,100224.00
2023-05-23T04:28:46.452Z,100230.78
2023-05-23T04:31:13.995Z,100224.53
2023-05-23T04:33:42.091Z,100220.88
2023-05-23T04:36:09.889Z,100221.63
2023-05-23T04:38:42.521Z,100214.59
2023-05-23T04:41:12.631Z,100223.03
2023-05-23T04:43:43.010Z,100213.44
2023-05-23T04:46:27.841Z,100224.34
2023-05-23T04:49:17.412Z,100217.34
2023-05-23T04:51:44.651Z,100217.03
2023-05-23T04:54:19.309Z,100213.09
2023-05-23T04:56:46.559Z,100216.28
2023-05-23T04:59:15.224Z,100203.84
2023-05-23T05:01:42.372Z,100196.59
2023-05-23T05:04:10.077Z,100201.59
2023-05-23T05:06:37.271Z,100199.66
2023-05-23T05:09:04.358Z,100195.94
2023-05-23T05:11:31.397Z,100187.19
2023-05-23T05:13:59.290Z,100185.16
2023-05-23T05:16:26.563Z,100187.75
2023-05-23T05:18:53.742Z,100179.72
2023-05-23T05:21:22.053Z,100188.25
2023-05-23T05:23:49.392Z,100176.91
2023-05-23T05:26:17.743Z,100167.97
2023-05-23T05:28:44.836Z,100168.69
2023-05-23T05:31:15.580Z,100168.47
2023-05-23T05:33:46.176Z,100174.44
2023-05-23T05:36:15.224Z,100175.22
2023-05-23T05:38:43.427Z,100169.69
2023-05-23T05:41:10.697Z,100170.13
2023-05-23T05:43:42.342Z,100167.06
2023-05-23T05:46:09.348Z,100159.88
2023-05-23T05:48:36.639Z,100170.69
2023-05-23T05:51:07.640Z,100166.91
2023-05-23T05:53:35.298Z,100166.56
2023-05-23T05:56:03.538Z,100166.19
2023-05-23T05:58:32.340Z,100166.66
2023-05-23T06:01:06.398Z,100169.69
2023-05-23T06:03:34.344Z,100165.03
2023-05-23T06:06:01.610Z,100156.88
2023-05-23T06:08:28.848Z,100154.63
2023-05-23T06:10:57.021Z,100142.75
2023-05-23T06:13:25.688Z,100148.03
2023-05-23T06:15:54.201Z,100152.41
2023-05-23T06:18:21.970Z,100147.53
2023-05-23T06:20:50.977Z,100149.50
2023-05-23T06:23:19.895Z,100140.72
2023-05-23T06:25:47.694Z,100145.44
2023-05-23T06:28:14.789Z,100145.09
2023-05-23T06:30:42.162Z,100144.94
2023-05-23T06:33:09.617Z,100139.53
2023-05-23T06:35:36.757Z,100142.09
2023-05-23T06:38:03.781Z,100140.19
2023-05-23T06:40:30.989Z,100142.78
2023-05-23T06:42:58.568Z,100135.72
2023-05-23T06:45:49.084Z,100147.75
2023-05-23T06:48:16.158Z,100141.44
2023-05-23T06:50:44.201Z,100138.50
2023-05-23T06:53:12.215Z,100136.38
2023-05-23T06:55:40.704Z,100127.44
2023-05-23T06:58:09.803Z,100130.94
2023-05-23T07:00:38.481Z,100128.97
2023-05-23T07:03:25.873Z,100131.91
2023-05-23T07:05:54.650Z,100134.88
2023-05-23T07:08:23.235Z,100126.69
2023-05-23T07:11:00.190Z,100127.91
2023-05-23T07:13:33.891Z,100130.38
2023-05-23T07:16:01.688Z,100128.38
2023-05-23T07:18:29.176Z,100120.63
2023-05-23T07:20:57.768Z,100117.31
2023-05-23T07:23:26.002Z,100121.56
2023-05-23T07:26:01.785Z,100114.13
2023-05-23T07:28:36.600Z,100103.91
2023-05-23T07:31:03.866Z,100109.28
2023-05-23T07:33:33.788Z,100104.03
2023-05-23T07:36:04.481Z,100098.94
2023-05-23T07:38:31.641Z,100099.25
2023-05-23T07:41:10.491Z,100107.59
2023-05-23T07:43:40.137Z,100104.97
2023-05-23T07:46:07.678Z,100105.47
2023-05-23T07:48:35.534Z,100097.50
2023-05-23T07:51:04.157Z,100087.81
2023-05-23T07:53:31.720Z,100090.84
2023-05-23T07:55:59.190Z,100092.22
2023-05-23T07:58:31.455Z,100083.38
2023-05-23T08:00:59.923Z,100084.09
2023-05-23T08:03:47.399Z,100070.75
2023-05-23T08:06:21.436Z,100079.91
2023-05-23T08:08:49.176Z,100080.72
2023-05-23T08:11:16.548Z,100084.09
2023-05-23T08:13:48.663Z,100083.72
2023-05-23T08:16:39.197Z,100073.88
2023-05-23T08:19:14.669Z,100078.00
2023-05-23T08:21:42.687Z,100086.94
2023-05-23T08:24:09.846Z,100082.06
2023-05-23T08:26:39.123Z,100082.25
2023-05-23T08:29:10.737Z,100082.06
2023-05-23T08:31:38.123Z,100074.72
2023-05-23T08:34:07.441Z,100077.38
2023-05-23T08:36:36.942Z,100076.09
2023-05-23T08:39:06.329Z,100077.97
2023-05-23T08:41:37.711Z,100080.56
2023-05-23T08:44:09.580Z,100079.13
2023-05-23T08:46:46.606Z,100068.19
2023-05-23T08:49:22.938Z,100072.28
2023-05-23T08:51:54.596Z,100074.88
2023-05-23T08:54:22.535Z,100072.78
2023-05-23T08:56:52.364Z,100077.44
2023-05-23T08:59:21.116Z,100078.28
2023-05-23T09:01:50.944Z,100071.53
2023-05-23T09:04:18.563Z,100080.69
2023-05-23T09:06:54.255Z,100075.22
2023-05-23T09:09:21.399Z,100075.34
2023-05-23T09:11:49.806Z,100074.16
2023-05-23T09:14:18.391Z,100065.94
2023-05-23T09:16:49.447Z,100064.09
2023-05-23T09:19:20.391Z,100059.03
2023-05-23T09:21:56.060Z,100067.06
2023-05-23T09:24:37.674Z,100069.81
2023-05-23T09:27:08.701Z,100061.34
2023-05-23T09:29:42.226Z,100062.25
2023-05-23T09:32:14.039Z,100060.00
2023-05-23T09:34:47.897Z,100062.94
2023-05-23T09:37:19.606Z,100056.03
2023-05-23T09:39:48.848Z,100060.59
2023-05-23T09:42:22.217Z,100061.84
2023-05-23T09:44:50.399Z,100047.22
2023-05-23T09:47:18.066Z,100057.16
2023-05-23T09:49:47.095Z,100060.75
2023-05-23T09:52:14.577Z,100044.19
2023-05-23T09:54:41.624Z,100054.72
2023-05-23T09:57:11.450Z,100047.66
2023-05-23T09:59:45.732Z,100052.16
2023-05-23T10:02:13.745Z,100042.09
2023-05-23T10:04:43.099Z,100054.03
2023-05-23T10:07:16.101Z,100051.03
2023-05-23T10:09:48.330Z,100053.00
2023-05-23T10:12:42.404Z,100041.28
2023-05-23T10:15:11.740Z,100051.19
2023-05-23T10:18:00.883Z,100042.97
2023-05-23T10:20:34.238Z,100040.56
2023-05-23T10:23:02.770Z,100029.72
2023-05-23T10:25:29.977Z,100038.41
2023-05-23T10:28:04.313Z,100036.00
2023-05-23T10:30:32.161Z,100043.72
2023-05-23T10:32:59.923Z,100033.56
2023-05-23T10:35:30.662Z,100031.16
2023-05-23T10:38:16.964Z,100036.66
2023-05-23T10:41:02.780Z,100023.31
2023-05-23T10:44:02.881Z,100029.97
2023-05-23T10:46:48.708Z,100031.09
2023-05-23T10:49:15.809Z,100035.38
2023-05-23T10:51:42.851Z,100035.59
2023-05-23T10:54:12.755Z,100029.13
2023-05-23T10:56:39.823Z,100026.88
2023-05-23T10:59:07.035Z,100034.16
2023-05-23T11:01:39.736Z,100020.50
2023-05-23T11:04:07.821Z,100020.50
2023-05-23T11:06:45.519Z,100024.97
2023-05-23T11:09:20.483Z,100026.03
2023-05-23T11:12:01.083Z,100018.53
2023-05-23T11:14:33.965Z,100023.78
2023-05-23T11:17:13.157Z,100016.47
2023-05-23T11:19:40.749Z,100023.06
2023-05-23T11:22:11.178Z,100005.09
2023-05-23T11:24:54.177Z,100016.53
2023-05-23T11:27:40.327Z,100016.34
2023-05-23T11:30:14.259Z,100011.50
2023-05-23T11:32:43.358Z,100013.13
2023-05-23T11:35:11.568Z,100019.59
2023-05-23T11:37:39.805Z,100021.56
2023-05-23T11:40:32.680Z,100023.03
2023-05-23T11:43:01.343Z,100022.69
2023-05-23T11:45:34.746Z,100025.75
2023-05-23T11:48:13.056Z,100023.06
2023-05-23T11:50:48.904Z,100021.69
2023-05-23T11:53:20.949Z,100016.81
2023-05-23T11:55:53.819Z,100021.47
2023-05-23T11:58:23.131Z,99998.75
2023-05-23T12:00:51.352Z,100010.81
2023-05-23T12:03:19.622Z,100008.59
2023-05-23T12:05:46.971Z,100018.19
2023-05-23T12:08:15.249Z,100017.97
2023-05-23T12:10:59.597Z,100014.38
2023-05-23T12:13:29.574Z,100013.47
2023-05-23T12:15:59.333Z,100014.03
2023-05-23T12:18:31.646Z,100017.41
2023-05-23T12:21:03.792Z,100004.97
2023-05-23T12:23:33.814Z,100001.28
2023-05-23T12:26:07.430Z,100001.19
2023-05-23T12:28:43.742Z,99995.72
2023-05-23T12:31:17.939Z,100000.78
2023-05-23T12:33:48.359Z,99992.25
2023-05-23T12:36:22.049Z,99990.06
2023-05-23T12:38:49.374Z,99996.09
2023-05-23T12:41:20.024Z,99986.91
2023-05-23T12:43:55.084Z,99983.22
2023-05-23T12:46:24.225Z,99989.03
2023-05-23T12:48:51.482Z,99983.44
2023-05-23T12:51:19.151Z,99984.19
2023-05-23T12:53:46.239Z,99985.84
2023-05-23T12:56:13.306Z,99983.97
2023-05-23T12:58:40.417Z,99978.25
2023-05-23T13:01:07.646Z,99970.47
2023-05-23T13:03:35.127Z,99976.38
2023-05-23T13:06:03.368Z,99976.19
2023-05-23T13:08:30.446Z,99972.06
2023-05-23T13:10:57.918Z,99968.59
2023-05-23T13:13:25.124Z,99967.47
2023-05-23T13:15:52.282Z,99971.50
2023-05-23T13:18:19.906Z,99969.31
2023-05-23T13:20:46.958Z,99971.41
2023-05-23T13:23:14.196Z,99965.59
2023-05-23T13:25:41.469Z,99963.25
2023-05-23T13:28:08.846Z,99972.97
2023-05-23T13:30:36.010Z,99958.47
2023-05-23T13:33:03.404Z,99957.34
2023-05-23T13:35:30.667Z,99965.81
2023-05-23T13:37:57.770Z,99955.66
2023-05-23T13:40:25.132Z,99959.25
2023-05-23T13:42:52.637Z,99959.06
2023-05-23T13:45:20.402Z,99957.13
2023-05-23T13:47:47.646Z,99954.84
2023-05-23T13:50:14.962Z,99953.34
2023-05-23T13:52:45.639Z,99954.31
2023-05-23T13:55:13.699Z,99954.38
2023-05-23T13:57:40.694Z,99950.16
2023-05-23T14:00:09.038Z,99953.13
2023-05-23T14:02:36.244Z,99948.03
2023-05-23T14:05:04.121Z,99940.47
2023-05-23T14:07:31.765Z,99941.28
2023-05-23T14:09:59.937Z,99938.97
2023-05-23T14:12:27.507Z,99939.63
2023-05-23T14:14:54.539Z,99944.91
2023-05-23T14:17:21.738Z,99946.78
2023-05-23T14:19:48.889Z,99936.84
2023-05-23T14:22:15.996Z,99936.75
2023-05-23T14:24:43.121Z,99939.41
2023-05-23T14:27:11.432Z,99936.97
2023-05-23T14:29:39.255Z,99935.06
2023-05-23T14:32:06.705Z,99937.91
2023-05-23T14:34:34.068Z,99936.44
2023-05-23T14:37:01.415Z,99937.38
2023-05-23T14:39:29.327Z,99931.56
2023-05-23T14:41:56.746Z,99931.56
2023-05-23T14:44:24.075Z,99923.09
2023-05-23T14:46:51.297Z,99922.38
2023-05-23T14:49:18.377Z,99927.66
2023-05-23T14:51:50.755Z,99928.38
2023-05-23T14:54:19.163Z,99919.53
2023-05-23T14:56:46.663Z,99927.16
2023-05-23T14:59:14.009Z,99916.59
2023-05-23T15:01:41.291Z,99917.44
2023-05-23T15:04:11.792Z,99922.72
2023-05-23T15:06:39.666Z,99915.72
2023-05-23T15:09:07.799Z,99914.88
2023-05-23T15:11:42.584Z,99914.25
2023-05-23T15:14:09.761Z,99914.69
2023-05-23T15:16:37.578Z,99917.41
2023-05-23T15:19:06.019Z,99911.50
2023-05-23T15:21:33.184Z,99915.28
2023-05-23T15:24:00.395Z,99922.44
2023-05-23T15:26:27.681Z,99931.53
2023-05-23T15:28:55.227Z,99940.53
2023-05-23T15:31:23.316Z,99943.84
2023-05-23T15:33:50.570Z,99940.38
2023-05-23T15:36:17.714Z,99946.88
2023-05-23T15:38:44.980Z,99944.72
2023-05-23T15:41:12.222Z,99942.47
2023-05-23T15:43:39.375Z,99945.97
2023-05-23T15:46:06.441Z,99942.25
2023-05-23T15:48:33.672Z,99944.50
2023-05-23T15:51:00.768Z,99946.56
2023-05-23T15:53:28.447Z,99948.13
2023-05-23T15:55:56.856Z,99942.53
2023-05-23T15:58:23.970Z,99939.69
2023-05-23T16:00:51.168Z,99943.03
2023-05-23T16:03:18.794Z,99944.31
2023-05-23T16:05:46.412Z,99941.94
2023-05-23T16:08:13.568Z,99938.06
2023-05-23T16:10:40.788Z,99941.81
2023-05-23T16:13:09.415Z,99943.50
2023-05-23T16:15:36.664Z,99938.00
2023-05-23T16:18:04.315Z,99937.41
2023-05-23T16:20:31.401Z,99948.00
2023-05-23T16:22:58.529Z,99943.72
2023-05-23T16:25:25.598Z,99935.13
2023-05-23T16:27:52.839Z,99944.53
2023-05-23T16:30:20.403Z,99937.41
2023-05-23T16:32:47.488Z,99939.41
2023-05-23T16:35:14.603Z,99939.59
2023-05-23T16:37:41.858Z,99939.66
2023-05-23T16:40:09.327Z,99935.59
2023-05-23T16:42:37.681Z,99941.97
2023-05-23T16:45:05.504Z,99937.72
2023-05-23T16:47:32.607Z,99941.44
2023-05-23T16:49:59.622Z,99948.72
2023-05-23T16:52:26.758Z,99958.56
2023-05-23T16:54:55.918Z,99949.47
2023-05-23T16:57:23.173Z,99945.00
2023-05-23T16:59:50.309Z,99947.72
2023-05-23T17:02:17.665Z,99942.72
2023-05-23T17:04:45.143Z,99948.75
2023-05-23T17:07:12.268Z,99954.16
2023-05-23T17:09:39.415Z,99948.53
2023-05-23T17:12:06.972Z,99947.00
2023-05-23T17:14:34.619Z,99953.25
2023-05-23T17:17:03.533Z,99943.09
2023-05-23T17:19:30.755Z,99950.78
2023-05-23T17:21:59.228Z,99955.31
2023-05-23T17:24:26.338Z,99963.25
2023-05-23T17:26:53.381Z,99960.84
2023-05-23T17:29:20.609Z,99960.09
2023-05-23T17:31:47.902Z,99954.75
2023-05-23T17:34:15.014Z,99959.16
2023-05-23T17:36:42.187Z,99952.38
2023-05-23T17:39:09.929Z,99959.34
2023-05-23T17:41:36.896Z,99949.25
2023-05-23T17:44:04.023Z,99951.00
2023-05-23T17:46:31.198Z,99957.31
2023-05-23T17:48:58.287Z,99954.84
2023-05-23T17:51:25.441Z,99959.31
2023-05-23T17:53:53.964Z,99958.41
2023-05-23T17:56:23.620Z,99951.59
2023-05-23T17:58:51.619Z,99942.09
2023-05-23T18:01:18.819Z,99959.41
2023-05-23T18:03:45.921Z,99958.72
2023-05-23T18:06:13.088Z,99960.56
2023-05-23T18:08:41.518Z,99959.03
2023-05-23T18:11:09.015Z,99955.66
2023-05-23T18:13:36.165Z,99959.19
2023-05-23T18:16:03.287Z,99966.13
2023-05-23T18:18:30.506Z,99959.19
2023-05-23T18:20:57.629Z,99966.25
2023-05-23T18:23:24.807Z,99970.78
2023-05-23T18:25:52.137Z,99957.25
2023-05-23T18:28:19.252Z,99974.47
2023-05-23T18:30:46.300Z,99975.56
2023-05-23T18:33:13.563Z,99982.31
2023-05-23T18:35:40.923Z,99986.78
2023-05-23T18:38:08.163Z,99987.78
2023-05-23T18:40:35.117Z,99997.53
2023-05-23T18:43:02.249Z,99989.03
2023-05-23T18:45:29.315Z,100002.06
2023-05-23T18:47:56.604Z,100006.56
2023-05-23T18:50:23.937Z,100000.53
2023-05-23T18:52:50.928Z,100005.94
2023-05-23T18:55:18.029Z,100000.97
2023-05-23T18:57:45.130Z,100001.69
2023-05-23T19:00:13.321Z,100005.16
2023-05-23T19:02:44.641Z,99993.34
2023-05-23T19:05:12.842Z,100002.84
2023-05-23T19:07:40.264Z,100008.06
2023-05-23T19:10:07.790Z,100018.41
2023-05-23T19:12:34.891Z,100008.97
2023-05-23T19:15:02.087Z,100015.00
2023-05-23T19:17:29.190Z,100015.94
2023-05-23T19:19:56.285Z,100006.59
2023-05-23T19:22:23.346Z,100014.47
2023-05-23T19:24:50.448Z,100012.06
2023-05-23T19:27:17.650Z,100011.91
2023-05-23T19:29:45.623Z,100003.56
2023-05-23T19:32:12.824Z,100007.75
2023-05-23T19:34:40.166Z,100004.25
2023-05-23T19:37:07.276Z,100004.41
2023-05-23T19:39:34.427Z,100007.13
2023-05-23T19:42:01.549Z,100022.84
2023-05-23T19:44:28.693Z,100020.22
2023-05-23T19:46:55.888Z,100017.88
2023-05-23T19:49:23.167Z,100024.69
2023-05-23T19:51:50.234Z,100016.03
2023-05-23T19:54:17.933Z,100026.69
2023-05-23T19:56:45.763Z,100018.19
2023-05-23T19:59:13.848Z,100024.56
2023-05-23T20:01:40.982Z,100028.34
2023-05-23T20:04:10.345Z,100037.97
2023-05-23T20:06:39.122Z,100032.88
2023-05-23T20:09:06.376Z,100031.34
2023-05-23T20:11:35.175Z,100025.25
2023-05-23T20:14:02.455Z,100022.72
2023-05-23T20:16:29.829Z,100025.25
2023-05-23T20:18:57.172Z,100030.63
2023-05-23T20:21:24.429Z,100029.00
2023-05-23T20:23:51.631Z,100033.47
2023-05-23T20:26:18.896Z,100026.50
2023-05-23T20:28:46.034Z,100026.66
2023-05-23T20:31:13.311Z,100033.47
2023-05-23T20:33:40.509Z,100036.16
2023-05-23T20:36:07.938Z,100037.94
2023-05-23T20:38:35.541Z,100033.72
2023-05-23T20:41:08.958Z,100042.53
2023-05-23T20:43:37.978Z,100027.94
2023-05-23T20:46:10.193Z,100038.41
2023-05-23T20:48:37.710Z,100037.72
2023-05-23T20:51:06.127Z,100037.72
2023-05-23T20:53:34.411Z,100037.72
2023-05-23T20:56:02.884Z,100036.00
2023-05-23T20:58:30.050Z,100049.19
2023-05-23T21:00:57.900Z,100043.22
2023-05-23T21:03:25.159Z,100041.50
2023-05-23T21:05:52.373Z,100046.91
2023-05-23T21:08:19.793Z,100046.25
2023-05-23T21:10:50.682Z,100047.03
2023-05-23T21:13:19.720Z,100041.78
2023-05-23T21:15:46.858Z,100046.16
2023-05-23T21:18:14.010Z,100050.56
2023-05-23T21:20:41.706Z,100051.47
2023-05-23T21:23:08.998Z,100049.72
2023-05-23T21:25:36.295Z,100047.41
2023-05-23T21:28:03.596Z,100051.81
2023-05-23T21:30:30.810Z,100051.25
2023-05-23T21:32:58.103Z,100054.63
2023-05-23T21:35:25.318Z,100052.81
2023-05-23T21:37:52.777Z,100051.13
2023-05-23T21:40:20.026Z,100052.81
2023-05-23T21:42:47.218Z,100056.47
2023-05-23T21:45:14.308Z,100049.66
2023-05-23T21:47:41.383Z,100053.06
2023-05-23T21:50:08.919Z,100054.75
2023-05-23T21:52:36.078Z,100044.72
2023-05-23T21:55:03.448Z,100050.66
2023-05-23T21:57:30.701Z,100044.72
2023-05-23T21:59:57.718Z,100044.44
2023-05-23T22:02:24.830Z,100044.44
2023-05-23T22:04:52.011Z,100049.66
2023-05-23T22:07:20.164Z,100044.44
2023-05-23T22:09:47.288Z,100046.25
2023-05-23T22:12:14.461Z,100049.00
2023-05-23T22:14:41.644Z,100049.94
2023-05-23T22:17:10.206Z,100050.06
2023-05-23T22:19:37.705Z,100051.78
2023-05-23T22:22:05.007Z,100052.75
2023-05-23T22:24:32.142Z,100048.63
2023-05-23T22:27:00.926Z,100049.56
2023-05-23T22:29:27.957Z,100056.63
2023-05-23T22:31:55.116Z,100054.13
2023-05-23T22:34:22.359Z,100057.88
2023-05-23T22:36:49.459Z,100061.28
2023-05-23T22:39:17.200Z,100059.72
2023-05-23T22:41:44.252Z,100054.59
2023-05-23T22:44:12.084Z,100059.94
2023-05-23T22:46:39.756Z,100054.81
2023-05-23T22:49:06.834Z,100054.88
2023-05-23T22:51:34.301Z,100057.44
2023-05-23T22:54:01.894Z,100061.78
2023-05-23T22:56:28.977Z,100064.63
2023-05-23T22:58:56.184Z,100056.81
2023-05-23T23:01:23.260Z,100050.03
2023-05-23T23:03:50.292Z,100051.78
2023-05-23T23:06:17.436Z,100048.44
2023-05-23T23:08:47.413Z,100057.22
2023-05-23T23:11:14.532Z,100046.91
2023-05-23T23:13:41.554Z,100052.00
2023-05-23T23:16:08.836Z,100047.75
2023-05-23T23:18:35.839Z,100054.53
2023-05-23T23:21:02.937Z,100051.88
2023-05-23T23:23:30.123Z,100057.09
2023-05-23T23:25:57.130Z,100057.22
2023-05-23T23:28:24.137Z,100059.97
2023-05-23T23:30:51.127Z,100050.66
2023-05-23T23:33:18.159Z,100056.03
2023-05-23T23:35:48.672Z,100054.44
2023-05-23T23:38:16.567Z,100052.75
2023-05-23T23:40:46.842Z,100049.19
2023-05-23T23:43:13.992Z,100044.09
2023-05-23T23:45:41.105Z,100040.59
2023-05-23T23:48:08.203Z,100049.06
2023-05-23T23:50:35.416Z,100047.38
2023-05-23T23:53:02.563Z,100056.06
2023-05-23T23:55:29.607Z,100045.91
2023-05-23T23:57:56.719Z,100056.28
